Time;durP1;ratioP1;P1;durP2;ratioP2;P2;SDS_P1;SDS_P2;PMS_P1;PMS_P2;Temp;Humidity;BMP_temperature;BMP_pressure;BME280_temperature;BME280_humidity;BME280_pressure;Samples;Min_cycle;Max_cycle;Signal;HPM_P1;HPM_P2
2022/06/17 00:01:19;;;;;;;;;;;18.10;51.00;;;;;;5012284;28;19909;-79
2022/06/17 00:03:45;;;;;;;;;;;18.10;51.20;;;;;;5013508;28;19917;-79
2022/06/17 00:06:11;;;;;;;;;;;18.00;51.40;;;;;;5012934;28;20254;-79
2022/06/17 00:08:39;;;;;;;;;;;17.90;51.60;;;;;;5014514;28;19943;-80
2022/06/17 00:11:13;;;;;;;;;;;17.80;51.80;;;;;;5015709;28;20285;-80
2022/06/17 00:13:38;;;;;;;;;;;17.90;52.40;;;;;;5015079;28;20384;-80
2022/06/17 00:16:04;;;;;;;;;;;17.80;52.10;;;;;;5015187;28;19909;-80
2022/06/17 00:18:30;;;;;;;;;;;17.80;52.30;;;;;;5014495;28;19917;-80
2022/06/17 00:20:55;;;;;;;;;;;17.80;52.30;;;;;;5016680;28;20424;-80
2022/06/17 00:23:22;;;;;;;;;;;17.90;51.90;;;;;;5016712;28;19968;-80
2022/06/17 00:25:48;;;;;;;;;;;17.80;52.30;;;;;;5016596;28;19952;-80
2022/06/17 00:28:15;;;;;;;;;;;17.80;52.30;;;;;;5014886;28;20415;-80
2022/06/17 00:30:41;;;;;;;;;;;17.90;51.90;;;;;;5015828;28;19945;-81
2022/06/17 00:33:07;;;;;;;;;;;17.80;51.90;;;;;;5016652;28;19917;-80
2022/06/17 00:35:34;;;;;;;;;;;17.80;51.90;;;;;;5014913;28;19909;-80
2022/06/17 00:38:00;;;;;;;;;;;17.80;52.10;;;;;;5014664;28;19918;-79
2022/06/17 00:40:27;;;;;;;;;;;17.70;52.10;;;;;;5015077;28;19913;-79
2022/06/17 00:42:53;;;;;;;;;;;17.70;52.30;;;;;;5015857;28;19924;-79
2022/06/17 00:45:31;;;;;;;;;;;17.70;52.10;;;;;;5015853;28;19933;-79
2022/06/17 00:48:06;;;;;;;;;;;17.60;52.30;;;;;;5015349;28;19917;-79
2022/06/17 00:50:53;;;;;;;;;;;17.60;52.00;;;;;;5013653;28;20285;-79
2022/06/17 00:53:21;;;;;;;;;;;17.50;52.70;;;;;;5016211;28;20301;-79
2022/06/17 00:55:50;;;;;;;;;;;17.50;53.10;;;;;;5015666;28;20197;-79
2022/06/17 00:58:20;;;;;;;;;;;17.40;53.50;;;;;;5015746;28;19917;-80
2022/06/17 01:00:47;;;;;;;;;;;17.30;54.00;;;;;;5014998;28;20400;-79
2022/06/17 01:03:15;;;;;;;;;;;17.30;55.40;;;;;;5015722;28;19909;-79
2022/06/17 01:05:45;;;;;;;;;;;17.30;55.50;;;;;;5014324;28;19935;-80
2022/06/17 01:08:14;;;;;;;;;;;17.30;55.10;;;;;;5015548;28;19917;-80
2022/06/17 01:10:42;;;;;;;;;;;17.20;55.70;;;;;;5014638;28;19913;-79
2022/06/17 01:13:08;;;;;;;;;;;17.30;55.50;;;;;;5015595;28;19931;-80
2022/06/17 01:15:35;;;;;;;;;;;17.10;56.00;;;;;;5015514;28;19910;-79
2022/06/17 01:18:00;;;;;;;;;;;17.10;56.80;;;;;;5015426;28;19925;-79
2022/06/17 01:20:28;;;;;;;;;;;17.00;56.00;;;;;;5013483;28;19910;-79
2022/06/17 01:22:55;;;;;;;;;;;17.10;56.70;;;;;;5015393;28;20358;-78
2022/06/17 01:25:20;;;;;;;;;;;17.10;56.60;;;;;;5016680;28;19909;-79
2022/06/17 01:27:51;;;;;;;;;;;17.10;56.80;;;;;;5016494;28;20469;-80
2022/06/17 01:30:22;;;;;;;;;;;17.10;57.10;;;;;;5014854;28;19988;-79
2022/06/17 01:32:49;;;;;;;;;;;17.00;56.90;;;;;;5015105;28;19949;-81
2022/06/17 01:35:15;;;;;;;;;;;17.00;57.00;;;;;;5014317;28;19980;-79
2022/06/17 01:37:41;;;;;;;;;;;16.90;56.30;;;;;;5013726;28;20366;-79
2022/06/17 01:40:06;;;;;;;;;;;16.80;56.50;;;;;;5013889;28;19951;-79
2022/06/17 01:42:33;;;;;;;;;;;16.80;56.90;;;;;;5014317;28;19917;-80
2022/06/17 01:44:59;;;;;;;;;;;16.80;56.70;;;;;;5014053;28;19992;-80
2022/06/17 01:47:27;;;;;;;;;;;16.80;56.50;;;;;;5012936;28;20052;-79
2022/06/17 01:50:05;;;;;;;;;;;16.80;56.50;;;;;;5013384;28;20356;-79
2022/06/17 01:52:31;;;;;;;;;;;16.50;57.10;;;;;;5012579;28;19916;-79
2022/06/17 01:55:08;;;;;;;;;;;16.50;57.00;;;;;;5013771;28;19913;-79
2022/06/17 01:57:39;;;;;;;;;;;16.60;56.90;;;;;;5013517;28;19910;-78
2022/06/17 02:00:09;;;;;;;;;;;16.70;56.50;;;;;;5012240;28;19913;-79
2022/06/17 02:02:36;;;;;;;;;;;16.80;56.50;;;;;;5013752;28;19956;-80
2022/06/17 02:05:05;;;;;;;;;;;16.70;56.10;;;;;;5012540;28;19967;-79
2022/06/17 02:07:33;;;;;;;;;;;16.70;56.40;;;;;;5012292;28;20248;-81
2022/06/17 02:09:59;;;;;;;;;;;16.70;56.40;;;;;;5012015;28;19910;-80
2022/06/17 02:12:27;;;;;;;;;;;16.40;56.80;;;;;;5012759;28;19936;-80
2022/06/17 02:14:53;;;;;;;;;;;16.50;56.20;;;;;;5013337;28;19909;-79
2022/06/17 02:17:20;;;;;;;;;;;16.50;56.50;;;;;;5012092;28;19910;-82
2022/06/17 02:19:46;;;;;;;;;;;16.50;56.50;;;;;;5011701;28;19914;-80
2022/06/17 02:22:17;;;;;;;;;;;16.50;56.90;;;;;;5012564;28;19917;-80
2022/06/17 02:24:43;;;;;;;;;;;16.50;56.80;;;;;;5012659;28;19910;-80
2022/06/17 02:27:10;;;;;;;;;;;16.60;56.70;;;;;;5013392;28;19967;-81
2022/06/17 02:29:36;;;;;;;;;;;16.50;56.60;;;;;;5011518;28;19914;-81
2022/06/17 02:32:04;;;;;;;;;;;16.60;57.00;;;;;;5011834;28;20027;-81
2022/06/17 02:34:29;;;;;;;;;;;16.50;56.90;;;;;;5012132;28;20365;-81
2022/06/17 02:37:01;;;;;;;;;;;16.50;56.80;;;;;;5011809;28;20008;-80
2022/06/17 02:39:27;;;;;;;;;;;16.40;57.00;;;;;;5012399;28;19925;-81
2022/06/17 02:41:53;;;;;;;;;;;16.30;57.10;;;;;;5012024;28;19913;-81
2022/06/17 02:44:21;;;;;;;;;;;16.40;56.90;;;;;;5013736;28;19909;-81
2022/06/17 02:46:47;;;;;;;;;;;16.30;56.70;;;;;;5013307;28;19966;-81
2022/06/17 02:49:16;;;;;;;;;;;16.20;56.40;;;;;;5012906;28;19913;-80
2022/06/17 02:51:43;;;;;;;;;;;16.20;56.20;;;;;;5012394;28;19913;-80
2022/06/17 02:54:11;;;;;;;;;;;16.10;56.60;;;;;;5012120;28;19963;-81
2022/06/17 02:56:37;;;;;;;;;;;16.20;56.80;;;;;;5013243;28;19913;-80
2022/06/17 02:59:09;;;;;;;;;;;16.10;57.30;;;;;;5012550;28;19960;-81
2022/06/17 03:01:35;;;;;;;;;;;16.10;57.10;;;;;;5012795;28;19948;-80
2022/06/17 03:04:05;;;;;;;;;;;16.10;56.90;;;;;;5012989;28;20324;-79
2022/06/17 03:06:36;;;;;;;;;;;16.10;56.60;;;;;;5011301;28;20379;-79
2022/06/17 03:09:14;;;;;;;;;;;16.00;57.50;;;;;;5010331;28;20285;-78
2022/06/17 03:11:41;;;;;;;;;;;15.80;57.20;;;;;;5012412;28;19952;-81
2022/06/17 03:14:08;;;;;;;;;;;15.80;57.30;;;;;;5012130;28;19913;-80
2022/06/17 03:16:34;;;;;;;;;;;15.70;58.10;;;;;;5012878;28;20305;-79
2022/06/17 03:18:59;;;;;;;;;;;15.60;58.40;;;;;;5010985;28;19913;-79
2022/06/17 03:21:25;;;;;;;;;;;15.40;59.00;;;;;;5012832;28;20379;-79
2022/06/17 03:23:54;;;;;;;;;;;15.50;58.70;;;;;;5012588;28;19917;-79
2022/06/17 03:26:24;;;;;;;;;;;15.60;58.80;;;;;;5012501;28;19909;-78
2022/06/17 03:28:51;;;;;;;;;;;15.60;58.90;;;;;;5011955;28;19917;-80
2022/06/17 03:31:22;;;;;;;;;;;15.60;59.10;;;;;;5012764;28;20000;-80
2022/06/17 03:33:51;;;;;;;;;;;15.60;59.30;;;;;;5012445;28;19929;-80
2022/06/17 03:36:21;;;;;;;;;;;15.50;59.40;;;;;;5012500;28;19996;-80
2022/06/17 03:38:49;;;;;;;;;;;15.50;59.50;;;;;;5012353;28;20009;-80
2022/06/17 03:41:23;;;;;;;;;;;15.60;60.00;;;;;;5012672;28;20391;-80
2022/06/17 03:43:51;;;;;;;;;;;15.60;60.40;;;;;;5012241;28;19916;-81
2022/06/17 03:46:19;;;;;;;;;;;15.60;60.20;;;;;;5011160;28;20000;-81
2022/06/17 03:48:47;;;;;;;;;;;15.60;60.30;;;;;;5010334;28;19914;-81
2022/06/17 03:51:15;;;;;;;;;;;15.60;60.50;;;;;;5012651;28;19910;-81
2022/06/17 03:53:42;;;;;;;;;;;15.70;60.60;;;;;;5012232;28;19920;-81
2022/06/17 03:56:12;;;;;;;;;;;15.60;61.30;;;;;;5012097;28;19917;-81
2022/06/17 03:58:38;;;;;;;;;;;15.50;60.60;;;;;;5010211;28;19913;-81
2022/06/17 04:01:10;;;;;;;;;;;15.40;60.40;;;;;;5011903;28;19964;-81
2022/06/17 04:03:38;;;;;;;;;;;15.40;60.90;;;;;;5010827;28;20004;-82
2022/06/17 04:06:15;;;;;;;;;;;15.50;60.50;;;;;;5010499;28;19913;-80
2022/06/17 04:08:54;;;;;;;;;;;15.50;60.50;;;;;;5010056;28;19917;-81
2022/06/17 04:11:21;;;;;;;;;;;15.60;60.80;;;;;;5010509;28;19909;-81
2022/06/17 04:13:47;;;;;;;;;;;15.60;61.30;;;;;;5010495;28;19967;-80
2022/06/17 04:16:20;;;;;;;;;;;15.60;61.40;;;;;;5011570;28;20012;-80
2022/06/17 04:18:45;;;;;;;;;;;15.60;62.00;;;;;;5010409;28;20012;-79
2022/06/17 04:21:12;;;;;;;;;;;15.70;61.40;;;;;;5012231;28;19968;-80
2022/06/17 04:23:38;;;;;;;;;;;15.60;60.80;;;;;;5010875;28;19909;-82
2022/06/17 04:26:09;;;;;;;;;;;15.70;61.30;;;;;;5011163;28;19910;-80
2022/06/17 04:28:55;;;;;;;;;;;15.60;61.70;;;;;;5010015;28;20278;-82
2022/06/17 04:31:22;;;;;;;;;;;15.60;61.00;;;;;;5010242;28;20281;-81
2022/06/17 04:33:50;;;;;;;;;;;15.70;60.80;;;;;;5011503;28;19965;-80
2022/06/17 04:36:21;;;;;;;;;;;15.80;59.60;;;;;;5010292;28;19952;-80
2022/06/17 04:38:49;;;;;;;;;;;16.00;61.00;;;;;;5011059;28;20464;-81
2022/06/17 04:41:17;;;;;;;;;;;15.90;61.00;;;;;;5010331;28;19921;-80
2022/06/17 04:43:47;;;;;;;;;;;15.90;61.20;;;;;;5010369;28;20000;-80
2022/06/17 04:46:14;;;;;;;;;;;15.90;61.60;;;;;;5010016;28;19968;-80
2022/06/17 04:48:40;;;;;;;;;;;15.90;62.00;;;;;;5009588;28;19917;-80
2022/06/17 04:51:06;;;;;;;;;;;16.00;62.30;;;;;;5014927;28;20054;-81
2022/06/17 04:53:32;;;;;;;;;;;15.90;61.60;;;;;;5029985;28;20293;-81
2022/06/17 04:55:58;;;;;;;;;;;16.20;60.80;;;;;;5033469;28;19905;-80
2022/06/17 04:58:25;;;;;;;;;;;16.20;60.40;;;;;;5032758;28;19916;-80
2022/06/17 05:00:54;;;;;;;;;;;16.20;60.20;;;;;;5014866;28;19919;-82
2022/06/17 05:03:21;;;;;;;;;;;16.30;60.60;;;;;;5016421;28;20365;-81
2022/06/17 05:05:47;;;;;;;;;;;16.30;60.70;;;;;;5030095;28;20357;-80
2022/06/17 05:08:19;;;;;;;;;;;16.40;61.30;;;;;;5032051;28;19952;-81
2022/06/17 05:10:47;;;;;;;;;;;16.50;60.60;;;;;;5033302;28;19919;-81
2022/06/17 05:13:18;;;;;;;;;;;16.70;60.10;;;;;;5014307;28;19909;-80
2022/06/17 05:15:43;;;;;;;;;;;16.80;60.00;;;;;;5052656;28;20177;-80
2022/06/17 05:18:09;;;;;;;;;;;17.00;59.00;;;;;;5054525;28;19909;-80
2022/06/17 05:20:34;;;;;;;;;;;17.10;59.80;;;;;;5053117;28;19966;-81
2022/06/17 05:23:01;;;;;;;;;;;17.20;59.10;;;;;;5056536;28;19913;-81
2022/06/17 05:25:29;;;;;;;;;;;17.40;58.30;;;;;;5045731;28;19913;-81
2022/06/17 05:27:54;;;;;;;;;;;17.80;57.40;;;;;;5046125;28;19912;-82
2022/06/17 05:30:20;;;;;;;;;;;18.20;56.20;;;;;;5054736;28;19913;-82
2022/06/17 05:32:49;;;;;;;;;;;18.30;55.30;;;;;;5057581;28;19921;-82
2022/06/17 05:35:15;;;;;;;;;;;18.30;55.00;;;;;;5059595;28;20342;-82
2022/06/17 05:37:40;;;;;;;;;;;18.40;56.60;;;;;;5059891;28;19913;-82
2022/06/17 05:40:08;;;;;;;;;;;18.40;56.30;;;;;;5059613;28;19937;-82
2022/06/17 05:42:38;;;;;;;;;;;18.70;55.10;;;;;;5059008;28;20319;-82
2022/06/17 05:45:04;;;;;;;;;;;18.90;54.90;;;;;;5059440;28;19952;-83
2022/06/17 05:47:29;;;;;;;;;;;19.10;54.90;;;;;;5061243;28;19917;-83
2022/06/17 05:49:55;;;;;;;;;;;19.20;54.00;;;;;;5056867;28;19916;-83
2022/06/17 05:52:20;;;;;;;;;;;19.40;53.40;;;;;;5058246;28;19909;-83
2022/06/17 05:54:46;;;;;;;;;;;19.70;52.90;;;;;;5059616;28;19909;-83
2022/06/17 05:57:11;;;;;;;;;;;19.90;52.10;;;;;;5058731;28;19909;-83
2022/06/17 05:59:37;;;;;;;;;;;20.10;51.20;;;;;;5057504;28;19927;-82
2022/06/17 06:02:03;;;;;;;;;;;20.30;51.40;;;;;;5057736;28;20376;-82
2022/06/17 06:04:31;;;;;;;;;;;20.30;51.20;;;;;;5055873;28;19916;-83
2022/06/17 06:06:57;;;;;;;;;;;20.50;51.20;;;;;;5056961;28;19912;-83
2022/06/17 06:09:22;;;;;;;;;;;20.90;50.70;;;;;;5055029;28;19916;-83
2022/06/17 06:11:48;;;;;;;;;;;21.50;49.70;;;;;;5057184;28;19967;-82
2022/06/17 06:14:13;;;;;;;;;;;22.20;49.50;;;;;;5052796;28;19916;-82
2022/06/17 06:16:39;;;;;;;;;;;22.60;49.60;;;;;;5054680;28;20440;-81
2022/06/17 06:19:04;;;;;;;;;;;22.60;50.10;;;;;;5053525;28;19909;-82
2022/06/17 06:21:30;;;;;;;;;;;23.00;48.40;;;;;;5052631;28;19927;-83
2022/06/17 06:23:56;;;;;;;;;;;23.40;47.10;;;;;;5052588;28;19908;-83
2022/06/17 06:26:22;;;;;;;;;;;23.60;46.50;;;;;;5054215;28;19909;-84
2022/06/17 06:28:47;;;;;;;;;;;24.10;45.60;;;;;;5052692;28;20500;-82
2022/06/17 06:31:25;;;;;;;;;;;24.40;44.80;;;;;;5052735;28;19909;-81
2022/06/17 06:33:50;;;;;;;;;;;24.50;44.80;;;;;;5054573;28;19913;-83
2022/06/17 06:36:16;;;;;;;;;;;24.70;44.20;;;;;;5053020;28;19909;-82
2022/06/17 06:38:41;;;;;;;;;;;24.90;44.20;;;;;;5052008;28;20012;-82
2022/06/17 06:41:07;;;;;;;;;;;25.10;43.60;;;;;;5053679;28;19913;-83
2022/06/17 06:43:34;;;;;;;;;;;25.20;43.20;;;;;;5053430;28;19916;-83
2022/06/17 06:46:04;;;;;;;;;;;25.10;43.10;;;;;;5052687;28;20280;-80
2022/06/17 06:48:29;;;;;;;;;;;24.90;43.20;;;;;;5052293;28;19924;-82
2022/06/17 06:50:55;;;;;;;;;;;24.80;42.80;;;;;;5051587;28;20008;-82
2022/06/17 06:53:20;;;;;;;;;;;24.90;42.40;;;;;;5052866;28;19948;-82
2022/06/17 06:55:48;;;;;;;;;;;25.10;42.90;;;;;;5051929;28;19908;-82
2022/06/17 06:58:15;;;;;;;;;;;25.40;42.40;;;;;;5051228;28;20055;-82
2022/06/17 07:00:43;;;;;;;;;;;25.50;41.80;;;;;;5050090;28;19971;-82
2022/06/17 07:03:09;;;;;;;;;;;25.70;41.30;;;;;;5050968;28;19913;-82
2022/06/17 07:05:37;;;;;;;;;;;25.80;40.80;;;;;;5052267;28;20357;-83
2022/06/17 07:08:03;;;;;;;;;;;25.90;40.40;;;;;;5050839;28;19917;-81
2022/06/17 07:10:30;;;;;;;;;;;26.00;40.00;;;;;;5051612;28;19998;-80
2022/06/17 07:12:56;;;;;;;;;;;26.10;39.80;;;;;;5052164;28;20292;-81
2022/06/17 07:15:22;;;;;;;;;;;26.20;39.00;;;;;;5051761;28;19920;-83
2022/06/17 07:18:05;;;;;;;;;;;26.50;39.00;;;;;;5050571;28;19909;-83
2022/06/17 07:20:37;;;;;;;;;;;26.70;38.80;;;;;;5051092;28;20364;-83
2022/06/17 07:23:06;;;;;;;;;;;27.00;38.30;;;;;;5051797;28;20368;-83
2022/06/17 07:25:31;;;;;;;;;;;27.10;38.10;;;;;;5051607;28;19913;-82
2022/06/17 07:27:57;;;;;;;;;;;27.40;37.30;;;;;;5051923;28;20395;-82
2022/06/17 07:30:23;;;;;;;;;;;27.50;37.70;;;;;;5051156;28;20358;-82
2022/06/17 07:32:49;;;;;;;;;;;27.70;37.10;;;;;;5050536;28;19913;-82
2022/06/17 07:35:14;;;;;;;;;;;;;;;;;;5051688;28;19915;-82
2022/06/17 07:40:25;;;;;;;;;;;28.20;36.10;;;;;;5051186;28;19966;-82
2022/06/17 07:42:50;;;;;;;;;;;28.20;35.80;;;;;;5051678;28;19947;-82
2022/06/17 07:45:17;;;;;;;;;;;28.20;36.20;;;;;;5051822;28;20070;-83
2022/06/17 07:47:43;;;;;;;;;;;28.20;36.30;;;;;;5050914;28;20402;-82
2022/06/17 07:50:11;;;;;;;;;;;28.00;39.30;;;;;;5051428;28;19944;-83
2022/06/17 07:52:36;;;;;;;;;;;27.90;38.70;;;;;;5051920;28;20011;-83
2022/06/17 07:55:02;;;;;;;;;;;27.90;38.00;;;;;;5032091;28;20476;-84
2022/06/17 07:57:28;;;;;;;;;;;27.90;38.00;;;;;;5026391;28;20003;-85
2022/06/17 07:59:53;;;;;;;;;;;27.90;38.00;;;;;;5025807;28;19913;-84
2022/06/17 08:02:19;;;;;;;;;;;27.70;37.60;;;;;;5027884;28;19947;-84
2022/06/17 08:04:45;;;;;;;;;;;27.60;37.80;;;;;;5025278;28;19921;-87
2022/06/17 08:07:11;;;;;;;;;;;27.50;38.10;;;;;;5027002;28;19909;-85
2022/06/17 08:09:37;;;;;;;;;;;27.60;38.20;;;;;;5027480;28;20420;-85
2022/06/17 08:12:03;;;;;;;;;;;27.50;38.10;;;;;;5025733;28;19909;-84
2022/06/17 08:14:28;;;;;;;;;;;27.50;38.10;;;;;;5025839;28;19909;-87
2022/06/17 08:16:54;;;;;;;;;;;27.50;37.80;;;;;;5031385;28;20567;-85
2022/06/17 08:19:19;;;;;;;;;;;27.50;39.10;;;;;;5029731;28;19967;-85
2022/06/17 08:21:45;;;;;;;;;;;27.60;39.40;;;;;;5031753;28;19913;-83
2022/06/17 08:24:11;;;;;;;;;;;27.80;38.30;;;;;;5030733;28;19951;-83
2022/06/17 08:26:36;;;;;;;;;;;28.00;38.10;;;;;;5022930;28;19956;-84
2022/06/17 08:29:02;;;;;;;;;;;28.10;37.80;;;;;;5029406;28;19940;-83
2022/06/17 08:31:27;;;;;;;;;;;28.20;37.70;;;;;;5032666;28;19917;-83
2022/06/17 08:33:53;;;;;;;;;;;28.20;37.60;;;;;;5032807;28;19920;-84
2022/06/17 08:36:21;;;;;;;;;;;28.20;37.20;;;;;;5034817;28;20439;-84
2022/06/17 08:38:49;;;;;;;;;;;28.20;37.20;;;;;;5033182;28;19921;-84
2022/06/17 08:41:21;;;;;;;;;;;28.30;37.10;;;;;;5034149;28;19923;-84
2022/06/17 08:43:55;;;;;;;;;;;28.20;36.90;;;;;;5034048;28;19920;-84
2022/06/17 08:46:45;;;;;;;;;;;28.20;37.90;;;;;;5035023;28;19909;-84
2022/06/17 08:49:25;;;;;;;;;;;28.20;37.20;;;;;;5033383;28;19917;-84
2022/06/17 08:51:50;;;;;;;;;;;28.10;37.30;;;;;;5035613;28;19959;-84
2022/06/17 08:54:25;;;;;;;;;;;28.10;37.50;;;;;;5034058;28;19913;-84
2022/06/17 08:57:11;;;;;;;;;;;28.00;38.00;;;;;;5034482;28;19909;-84
2022/06/17 08:59:36;;;;;;;;;;;27.90;38.00;;;;;;5035245;28;19917;-84
2022/06/17 09:02:18;;;;;;;;;;;27.80;38.10;;;;;;5036272;28;19909;-84
2022/06/17 09:04:59;;;;;;;;;;;27.70;38.10;;;;;;5034390;28;20369;-84
2022/06/17 09:07:37;;;;;;;;;;;27.60;38.30;;;;;;5035761;28;20436;-84
2022/06/17 09:10:02;;;;;;;;;;;27.50;38.50;;;;;;5034619;28;19913;-84
2022/06/17 09:12:43;;;;;;;;;;;27.50;38.60;;;;;;5035700;28;19910;-84
2022/06/17 09:15:11;;;;;;;;;;;27.50;38.80;;;;;;5034035;28;19963;-84
2022/06/17 09:17:49;;;;;;;;;;;27.50;39.10;;;;;;5033676;28;19914;-84
2022/06/17 09:20:17;;;;;;;;;;;27.40;39.20;;;;;;5033345;28;19913;-84
2022/06/17 09:22:49;;;;;;;;;;;27.30;39.20;;;;;;5035257;28;19913;-84
2022/06/17 09:25:17;;;;;;;;;;;27.30;39.30;;;;;;5035152;28;19940;-84
2022/06/17 09:27:45;;;;;;;;;;;27.30;39.20;;;;;;5034548;28;20423;-84
2022/06/17 09:30:18;;;;;;;;;;;27.30;39.80;;;;;;5034583;28;20032;-84
2022/06/17 09:32:49;;;;;;;;;;;27.20;39.10;;;;;;5036570;28;19919;-84
2022/06/17 09:35:21;;;;;;;;;;;27.20;39.10;;;;;;5035239;28;19913;-84
2022/06/17 09:37:53;;;;;;;;;;;27.20;39.20;;;;;;5033925;28;19959;-84
2022/06/17 09:40:38;;;;;;;;;;;27.30;39.30;;;;;;5033241;28;19920;-84
2022/06/17 09:43:12;;;;;;;;;;;27.20;39.40;;;;;;5034070;28;19909;-84
2022/06/17 09:45:40;;;;;;;;;;;27.10;39.40;;;;;;5033900;28;19965;-84
2022/06/17 09:48:19;;;;;;;;;;;26.90;39.50;;;;;;5033838;28;19917;-84
2022/06/17 09:50:49;;;;;;;;;;;26.80;40.10;;;;;;5033132;28;20007;-84
2022/06/17 09:53:17;;;;;;;;;;;26.70;40.40;;;;;;5033722;28;19909;-84
2022/06/17 09:55:46;;;;;;;;;;;26.50;40.50;;;;;;5034830;28;19964;-83
2022/06/17 09:58:34;;;;;;;;;;;26.40;40.70;;;;;;5030710;28;19958;-83
2022/06/17 10:01:00;;;;;;;;;;;26.40;41.00;;;;;;5029694;28;19909;-83
2022/06/17 10:03:35;;;;;;;;;;;26.40;40.00;;;;;;5030514;28;19917;-85
2022/06/17 10:06:01;;;;;;;;;;;;;;;;;;5030508;28;19913;-80
2022/06/17 10:08:27;;;;;;;;;;;;;;;;;;5032761;28;20308;-79
2022/06/17 10:10:53;;;;;;;;;;;;;;;;;;5031811;28;19935;-80
2022/06/17 10:13:19;;;;;;;;;;;;;;;;;;5033773;28;20011;-81
2022/06/17 10:18:31;;;;;;;;;;;;;;;;;;5032415;28;19910;-81
2022/06/17 10:18:34;;;;;;;;;;;;;;;;;;5033059;28;19923;-81
2022/06/17 10:21:00;;;;;;;;;;;;;;;;;;5030292;28;20361;-81
2022/06/17 10:23:26;;;;;;;;;;;;;;;;;;5031761;28;19932;-81
2022/06/17 10:25:52;;;;;;;;;;;;;;;;;;5030524;28;20018;-81
2022/06/17 10:28:18;;;;;;;;;;;;;;;;;;5032483;28;19916;-81
2022/06/17 10:30:44;;;;;;;;;;;;;;;;;;5029248;28;19981;-81
2022/06/17 10:33:10;;;;;;;;;;;;;;;;;;5031525;28;19959;-81
2022/06/17 10:35:37;;;;;;;;;;;;;;;;;;5031071;28;19912;-81
2022/06/17 10:38:03;;;;;;;;;;;;;;;;;;5030985;28;19909;-81
2022/06/17 10:40:29;;;;;;;;;;;;;;;;;;5029501;28;19919;-81
2022/06/17 10:42:55;;;;;;;;;;;;;;;;;;5030074;28;19956;-81
2022/06/17 10:45:21;;;;;;;;;;;;;;;;;;5030967;28;19947;-81
2022/06/17 10:47:47;;;;;;;;;;;;;;;;;;5031296;28;19960;-81
2022/06/17 10:50:13;;;;;;;;;;;;;;;;;;5029976;28;19950;-81
2022/06/17 10:52:39;;;;;;;;;;;;;;;;;;5030062;28;19909;-81
2022/06/17 10:55:05;;;;;;;;;;;;;;;;;;5017852;28;20104;-81
2022/06/17 10:57:31;;;;;;;;;;;;;;;;;;5022628;28;19940;-82
2022/06/17 10:59:57;;;;;;;;;;;;;;;;;;5014155;28;20376;-84
2022/06/17 11:02:30;;;;;;;;;;;;;;;;;;5012799;28;20415;-79
2022/06/17 11:04:56;;;;;;;;;;;;;;;;;;5028307;28;19909;-82
2022/06/17 11:07:22;;;;;;;;;;;;;;;;;;5017526;28;20655;-81
2022/06/17 11:09:48;;;;;;;;;;;;;;;;;;5017923;28;20311;-80
2022/06/17 11:12:16;;;;;;;;;;;;;;;;;;5027008;28;19952;-80
2022/06/17 11:14:42;;;;;;;;;;;;;;;;;;5031538;28;19914;-81
2022/06/17 11:17:08;;;;;;;;;;;;;;;;;;5049265;28;19916;-81
2022/06/17 11:19:34;;;;;;;;;;;;;;;;;;5013511;28;19917;-80
2022/06/17 11:22:00;;;;;;;;;;;;;;;;;;5011608;28;19956;-80
2022/06/17 11:24:26;;;;;;;;;;;;;;;;;;5011498;28;19913;-82
2022/06/17 11:26:52;;;;;;;;;;;;;;;;;;5010458;28;19957;-81
2022/06/17 11:29:18;;;;;;;;;;;;;;;;;;5013148;28;19914;-82
2022/06/17 11:31:49;;;;;;;;;;;;;;;;;;5027009;28;20431;-82
2022/06/17 11:34:15;;;;;;;;;;;;;;;;;;5031413;28;19952;-82
2022/06/17 11:36:41;;;;;;;;;;;;;;;;;;5015027;28;19917;-81
2022/06/17 11:39:07;;;;;;;;;;;;;;;;;;5009340;28;19984;-81
2022/06/17 11:41:32;;;;;;;;;;;;;;;;;;5009937;28;20024;-79
2022/06/17 11:43:59;;;;;;;;;;;;;;;;;;5032741;28;19909;-81
2022/06/17 11:46:25;;;;;;;;;;;;;;;;;;5050338;28;20308;-82
2022/06/17 11:48:52;;;;;;;;;;;;;;;;;;5051791;28;19985;-83
2022/06/17 11:51:17;;;;;;;;;;;;;;;;;;5042126;28;19916;-83
2022/06/17 11:53:43;;;;;;;;;;;;;;;;;;5011959;28;19964;-82
2022/06/17 11:56:09;;;;;;;;;;;;;;;;;;5012390;28;19913;-83
2022/06/17 11:58:35;;;;;;;;;;;;;;;;;;5009299;28;19917;-83
2022/06/17 12:01:01;;;;;;;;;;;;;;;;;;5011584;28;19999;-82
2022/06/17 12:03:27;;;;;;;;;;;;;;;;;;5010952;28;19940;-81
2022/06/17 12:05:53;;;;;;;;;;;;;;;;;;5011566;28;19980;-81
2022/06/17 12:08:20;;;;;;;;;;;;;;;;;;5026651;28;19932;-80
2022/06/17 12:10:50;;;;;;;;;;;;;;;;;;5010470;28;19913;-80
2022/06/17 12:13:16;;;;;;;;;;;;;;;;;;5010404;28;19963;-81
2022/06/17 12:15:42;;;;;;;;;;;;;;;;;;5010552;28;19933;-81
2022/06/17 12:18:08;;;;;;;;;;;;;;;;;;5009936;28;19914;-81
2022/06/17 12:20:34;;;;;;;;;;;;;;;;;;5024507;28;20285;-81
2022/06/17 12:23:00;;;;;;;;;;;;;;;;;;5030088;28;19963;-81
2022/06/17 12:25:26;;;;;;;;;;;;;;;;;;5029158;28;19956;-82
2022/06/17 12:27:52;;;;;;;;;;;;;;;;;;5011399;28;19968;-80
2022/06/17 12:30:17;;;;;;;;;;;;;;;;;;5010584;28;20343;-81
2022/06/17 12:32:43;;;;;;;;;;;;;;;;;;5011042;28;20369;-80
2022/06/17 12:35:09;;;;;;;;;;;;;;;;;;5009423;28;19913;-81
2022/06/17 12:37:35;;;;;;;;;;;;;;;;;;5009809;28;19909;-80
2022/06/17 12:40:01;;;;;;;;;;;;;;;;;;5008301;28;19972;-80
2022/06/17 12:42:27;;;;;;;;;;;;;;;;;;5012085;28;19920;-82
2022/06/17 12:44:54;;;;;;;;;;;;;;;;;;5043501;28;19913;-81
2022/06/17 12:47:20;;;;;;;;;;;;;;;;;;5048987;28;19916;-81
2022/06/17 12:55:16;;;;;;;;;;;;;;;;;;5051613;28;19916;-82
2022/06/17 12:57:41;;;;;;;;;;;;;;;;;;5051702;28;19908;-81
2022/06/17 13:00:07;;;;;;;;;;;;;;;;;;5033288;28;19995;-80
2022/06/17 13:02:33;;;;;;;;;;;;;;;;;;5008520;28;19953;-81
2022/06/17 13:04:59;;;;;;;;;;;;;;;;;;5010245;28;19906;-81
2022/06/17 13:07:25;;;;;;;;;;;;;;;;;;5009602;28;19913;-81
2022/06/17 13:09:51;;;;;;;;;;;;;;;;;;5010474;28;19951;-79
2022/06/17 13:12:17;;;;;;;;;;;;;;;;;;5009729;28;19968;-80
2022/06/17 13:14:43;;;;;;;;;;;;;;;;;;5011641;28;19933;-81
2022/06/17 13:17:09;;;;;;;;;;;;;;;;;;5021541;28;19909;-81
2022/06/17 13:19:35;;;;;;;;;;;;;;;;;;5033683;28;19960;-80
2022/06/17 13:22:01;;;;;;;;;;;;;;;;;;5034112;28;19951;-80
2022/06/17 13:24:28;;;;;;;;;;;;;;;;;;5034099;28;19913;-80
2022/06/17 13:26:54;;;;;;;;;;;;;;;;;;5034021;28;19909;-80
2022/06/17 13:29:20;;;;;;;;;;;;;;;;;;5041708;28;20017;-80
2022/06/17 13:31:46;;;;;;;;;;;;;;;;;;5053700;28;19967;-81
2022/06/17 13:34:12;;;;;;;;;;;;;;;;;;5036899;28;19961;-80
2022/06/17 13:36:38;;;;;;;;;;;;;;;;;;5014544;28;19941;-81
2022/06/17 13:39:04;;;;;;;;;;;;;;;;;;5013832;28;19918;-80
2022/06/17 13:41:30;;;;;;;;;;;;;;;;;;5014781;28;20392;-79
2022/06/17 13:43:56;;;;;;;;;;;;;;;;;;5013323;28;19921;-81
2022/06/17 13:46:22;;;;;;;;;;;;;;;;;;5012435;28;19948;-81
2022/06/17 13:48:48;;;;;;;;;;;;;;;;;;5011804;28;19953;-81
2022/06/17 13:51:13;;;;;;;;;;;;;;;;;;5012966;28;20404;-81
2022/06/17 13:53:39;;;;;;;;;;;;;;;;;;5013411;28;20373;-83
2022/06/17 13:56:05;;;;;;;;;;;;;;;;;;5016855;28;20412;-81
2022/06/17 13:58:33;;;;;;;;;;;;;;;;;;5028319;28;20436;-81
2022/06/17 14:00:58;;;;;;;;;;;;;;;;;;5034184;28;19909;-81
2022/06/17 14:03:25;;;;;;;;;;;;;;;;;;5019717;28;20012;-81
2022/06/17 14:05:51;;;;;;;;;;;;;;;;;;5012551;28;19947;-82
2022/06/17 14:08:17;;;;;;;;;;;;;;;;;;5013846;28;20321;-80
2022/06/17 14:10:46;;;;;;;;;;;;;;;;;;5032021;28;19913;-81
2022/06/17 14:13:12;;;;;;;;;;;;;;;;;;5037365;28;20021;-81
2022/06/17 14:15:38;;;;;;;;;;;;;;;;;;5033793;28;19937;-80
2022/06/17 14:18:04;;;;;;;;;;;;;;;;;;5034101;28;19910;-81
2022/06/17 14:20:31;;;;;;;;;;;;;;;;;;5034215;28;19956;-80
2022/06/17 14:22:56;;;;;;;;;;;;;;;;;;5033892;28;20384;-81
2022/06/17 14:25:22;;;;;;;;;;;;;;;;;;5023580;28;19919;-81
2022/06/17 14:27:48;;;;;;;;;;;;;;;;;;5035933;28;19939;-81
2022/06/17 14:30:15;;;;;;;;;;;;;;;;;;5051869;28;19912;-79
2022/06/17 14:32:41;;;;;;;;;;;;;;;;;;5053610;28;19913;-80
2022/06/17 14:35:07;;;;;;;;;;;;;;;;;;5053274;28;19920;-80
2022/06/17 14:37:34;;;;;;;;;;;;;;;;;;5052516;28;19935;-80
2022/06/17 14:40:00;;;;;;;;;;;;;;;;;;5052180;28;19936;-80
2022/06/17 14:42:26;;;;;;;;;;;;;;;;;;5031912;28;20381;-80
2022/06/17 14:44:54;;;;;;;;;;;;;;;;;;5012694;28;20486;-81
2022/06/17 14:47:29;;;;;;;;;;;;;;;;;;5013361;28;19924;-81
2022/06/17 14:49:55;;;;;;;;;;;;;;;;;;5042420;28;19917;-82
2022/06/17 14:52:21;;;;;;;;;;;;;;;;;;5035214;28;19909;-81
2022/06/17 14:54:47;;;;;;;;;;;;;;;;;;5032040;28;19913;-79
2022/06/17 14:57:13;;;;;;;;;;;;;;;;;;5031784;28;19920;-80
2022/06/17 14:59:40;;;;;;;;;;;;;;;;;;5020349;28;19965;-79
2022/06/17 15:02:06;;;;;;;;;;;;;;;;;;5014459;28;20064;-80
2022/06/17 15:04:32;;;;;;;;;;;;;;;;;;5015976;28;20357;-82
2022/06/17 15:06:58;;;;;;;;;;;;;;;;;;5015774;28;20324;-79
2022/06/17 15:09:24;;;;;;;;;;;;;;;;;;5028880;28;19932;-77
2022/06/17 15:11:52;;;;;;;;;;;;;;;;;;5034907;28;20380;-78
2022/06/17 15:14:17;;;;;;;;;;;;;;;;;;5033546;28;19917;-78